Waverly, Florida
Current Conditions -  °F | °C
As of 4:53 PM on Friday 24 Oct 2014 (Local Time) from KGIF Reporting Station
Broken Clouds Broken Clouds  
Wind Chill: 78°   Ceiling: 5000
Heat Index: 79°   Visibility: 10mi
Dew Point: 58°   Wind: 10mph
Humidity: 50%   Direction: 60°ENE
Pressure: 29.91"   Gusts: NA
Location:  27.98°N, 81.61°W
Report Text: KGIF 242053Z AUTO 06009KT 10SM BKN050 26/14 A2991 RMK AO2 SLP126 T02560144 56016
Loading
Personal Weather Stations






























Interactive Weather Map
Tropical Storm Tracking
New forecast layout! Learn more

10-Day Weather Forecast

Advertisements
Track Severe Weather on mobile